Time;durP1;ratioP1;P1;durP2;ratioP2;P2;SDS_P1;SDS_P2;PMS_P1;PMS_P2;Temp;Humidity;BMP_temperature;BMP_pressure;BME280_temperature;BME280_humidity;BME280_pressure;Samples;Min_cycle;Max_cycle;Signal;HPM_P1;HPM_P2
2023/03/01 00:01:22;;;;;;;0.30;0.20;;;;;;;9.57;100.00;95758.44;5111781;28;20934;-58
2023/03/01 00:03:51;;;;;;;0.30;0.20;;;;;;;9.55;100.00;95755.25;5111439;28;20567;-58
2023/03/01 00:06:20;;;;;;;0.30;0.20;;;;;;;9.59;100.00;95758.16;5111652;28;21117;-58
2023/03/01 00:08:49;;;;;;;0.60;0.30;;;;;;;9.98;100.00;95740.22;5111622;28;20426;-58
2023/03/01 00:11:20;;;;;;;0.30;0.20;;;;;;;10.16;100.00;95730.03;5111583;28;20436;-58
2023/03/01 00:13:52;;;;;;;0.30;0.20;;;;;;;9.74;100.00;95729.19;5111739;28;20508;-59
2023/03/01 00:16:22;;;;;;;0.30;0.20;;;;;;;9.59;100.00;95721.94;5111456;28;20503;-58
2023/03/01 00:18:51;;;;;;;0.40;0.20;;;;;;;10.24;100.00;95744.66;5111507;28;20431;-58
2023/03/01 00:21:21;;;;;;;0.40;0.30;;;;;;;10.55;100.00;95748.28;5111302;28;20510;-57
2023/03/01 00:23:51;;;;;;;0.30;0.20;;;;;;;10.61;100.00;95742.72;5111341;28;20484;-58
2023/03/01 00:26:20;;;;;;;0.30;0.20;;;;;;;10.68;100.00;95729.22;5111565;28;20466;-58
2023/03/01 00:28:50;;;;;;;0.43;0.30;;;;;;;10.72;100.00;95717.88;5113287;28;20499;-58
2023/03/01 00:31:21;;;;;;;0.30;0.20;;;;;;;10.88;100.00;95729.28;5115387;28;20465;-57
2023/03/01 00:33:52;;;;;;;0.40;0.30;;;;;;;10.88;100.00;95739.91;5115549;28;20977;-57
2023/03/01 00:36:21;;;;;;;0.30;0.20;;;;;;;10.95;100.00;95737.81;5115252;28;20427;-57
2023/03/01 00:38:49;;;;;;;0.40;0.30;;;;;;;10.86;100.00;95744.66;5115255;28;20427;-57
2023/03/01 00:41:19;;;;;;;0.30;0.20;;;;;;;11.00;100.00;95748.44;5115266;28;20474;-58
2023/03/01 00:43:48;;;;;;;0.30;0.20;;;;;;;10.59;100.00;95677.78;5115362;28;20537;-57
2023/03/01 00:46:20;;;;;;;0.30;0.20;;;;;;;11.00;100.00;95753.75;5114999;28;20430;-58
2023/03/01 00:48:49;;;;;;;0.30;0.20;;;;;;;10.83;100.00;95750.47;5115128;28;20975;-58
2023/03/01 00:51:18;;;;;;;0.30;0.20;;;;;;;10.96;100.00;95744.69;5115265;28;20783;-58
2023/03/01 00:53:47;;;;;;;0.30;0.20;;;;;;;10.79;100.00;95744.13;5115326;28;20457;-57
2023/03/01 00:56:16;;;;;;;0.57;0.57;;;;;;;10.89;100.00;95749.47;5115207;28;20538;-58
2023/03/01 00:58:44;;;;;;;0.30;0.23;;;;;;;10.35;100.00;95713.72;5115116;28;20477;-58
2023/03/01 01:01:17;;;;;;;0.83;0.83;;;;;;;10.79;100.00;95752.06;5114787;28;20437;-58
2023/03/01 01:03:52;;;;;;;0.30;0.20;;;;;;;10.93;100.00;95749.75;5114849;28;21008;-58
2023/03/01 01:06:23;;;;;;;0.30;0.20;;;;;;;10.95;100.00;95737.81;5114668;28;20439;-58
2023/03/01 01:08:52;;;;;;;0.30;0.20;;;;;;;10.79;100.00;95739.63;5114542;28;20431;-58
2023/03/01 01:11:21;;;;;;;0.80;0.80;;;;;;;9.86;100.00;95744.91;5114669;28;20962;-58
2023/03/01 01:13:50;;;;;;;0.67;0.67;;;;;;;9.71;100.00;95742.94;5114599;28;20477;-58
2023/03/01 01:16:20;;;;;;;0.40;0.30;;;;;;;9.39;100.00;95742.91;5114512;28;20424;-58
2023/03/01 01:18:51;;;;;;;0.40;0.30;;;;;;;9.03;100.00;95737.56;5114553;28;20880;-58
2023/03/01 01:21:23;;;;;;;0.30;0.20;;;;;;;9.03;100.00;95743.66;5114203;28;20470;-58
2023/03/01 01:23:52;;;;;;;0.30;0.20;;;;;;;9.24;100.00;95737.50;5114447;28;20469;-58
2023/03/01 01:26:23;;;;;;;0.73;0.70;;;;;;;9.61;100.00;95732.28;5114377;28;20446;-57
2023/03/01 01:28:52;;;;;;;0.40;0.30;;;;;;;9.86;100.00;95734.31;5114291;28;20423;-57
2023/03/01 01:31:24;;;;;;;0.30;0.20;;;;;;;9.62;100.00;95733.06;5114248;28;20437;-58
2023/03/01 01:33:55;;;;;;;0.40;0.30;;;;;;;9.81;100.00;95735.09;5114541;28;20423;-57
2023/03/01 01:36:24;;;;;;;0.30;0.20;;;;;;;9.32;100.00;95651.59;5114209;28;20430;-59
2023/03/01 01:38:53;;;;;;;1.07;0.50;;;;;;;9.63;100.00;95729.38;5113363;28;20773;-58
2023/03/01 01:41:22;;;;;;;0.30;0.30;;;;;;;9.76;100.00;95724.44;5114127;28;20428;-58
2023/03/01 01:44:06;;;;;;;0.30;0.20;;;;;;;9.82;100.00;95727.91;5113887;28;20482;-57
2023/03/01 01:46:38;;;;;;;0.47;0.30;;;;;;;9.59;100.00;95723.78;5113570;28;20523;-57
2023/03/01 01:49:18;;;;;;;0.30;0.20;;;;;;;9.62;100.00;95723.28;5113953;28;20431;-57
2023/03/01 01:51:50;;;;;;;0.40;0.40;;;;;;;9.28;100.00;95714.00;5113978;28;20517;-57
2023/03/01 01:54:23;;;;;;;0.40;0.20;;;;;;;9.39;100.00;95728.88;5113904;28;20978;-57
2023/03/01 01:56:56;;;;;;;0.30;0.20;;;;;;;9.30;100.00;95715.34;5114091;28;20432;-57
2023/03/01 01:59:25;;;;;;;0.30;0.20;;;;;;;9.71;100.00;95705.88;5113761;28;20923;-57
2023/03/01 02:01:54;;;;;;;0.30;0.20;;;;;;;9.76;100.00;95702.47;5113580;28;20620;-57
2023/03/01 02:04:25;;;;;;;0.30;0.20;;;;;;;9.29;100.00;95675.91;5113477;28;20477;-58
2023/03/01 02:06:59;;;;;;;1.53;0.30;;;;;;;9.31;100.00;95710.84;5113489;28;20990;-58
2023/03/01 02:09:28;;;;;;;0.30;0.20;;;;;;;9.37;100.00;95689.47;5112978;28;20437;-58
2023/03/01 02:11:56;;;;;;;0.30;0.20;;;;;;;9.19;100.00;95694.31;5113805;28;20465;-58
2023/03/01 02:14:24;;;;;;;0.30;0.20;;;;;;;9.15;100.00;95683.47;5113416;28;20907;-57
2023/03/01 02:16:53;;;;;;;0.30;0.20;;;;;;;9.28;100.00;95675.13;5113403;28;20435;-58
2023/03/01 02:19:42;;;;;;;0.30;0.20;;;;;;;9.49;100.00;95660.19;5113390;28;20435;-58
2023/03/01 02:22:20;;;;;;;0.30;0.20;;;;;;;8.98;100.00;95616.66;5113559;28;20445;-58
2023/03/01 02:25:00;;;;;;;0.30;0.20;;;;;;;9.47;100.00;95671.03;5113180;28;20837;-58
2023/03/01 02:27:37;;;;;;;0.30;0.20;;;;;;;9.23;100.00;95667.16;5113187;28;20468;-58
2023/03/01 02:30:12;;;;;;;0.30;0.20;;;;;;;9.68;100.00;95668.53;5113497;28;20502;-58
2023/03/01 02:32:41;;;;;;;0.50;0.47;;;;;;;9.41;100.00;95671.25;5112930;28;20440;-57
2023/03/01 02:35:12;;;;;;;0.30;0.20;;;;;;;9.51;100.00;95669.47;5112792;28;20435;-58
2023/03/01 02:37:41;;;;;;;0.30;0.20;;;;;;;9.54;100.00;95668.97;5112736;28;20434;-58
2023/03/01 02:40:15;;;;;;;0.30;0.20;;;;;;;9.35;100.00;95672.25;5112795;28;20914;-58
2023/03/01 02:42:49;;;;;;;0.30;0.20;;;;;;;9.39;100.00;95673.34;5112724;28;20506;-58
2023/03/01 02:45:19;;;;;;;0.30;0.20;;;;;;;9.84;100.00;95670.25;5112767;28;20554;-58
2023/03/01 02:47:48;;;;;;;0.30;0.20;;;;;;;9.41;100.00;95590.03;5113189;28;20450;-58
2023/03/01 02:50:30;;;;;;;0.30;0.30;;;;;;;9.50;100.00;95624.75;5112648;28;20506;-58
2023/03/01 02:53:06;;;;;;;0.30;0.20;;;;;;;9.84;100.00;95649.84;5113030;28;20426;-58
2023/03/01 02:55:34;;;;;;;0.30;0.20;;;;;;;8.64;100.00;95533.41;5112643;28;20449;-58
2023/03/01 02:58:03;;;;;;;0.40;0.40;;;;;;;9.53;100.00;95640.94;5112699;28;20449;-58
2023/03/01 03:00:39;;;;;;;0.97;0.30;;;;;;;9.21;100.00;95644.66;5113054;28;20435;-58
2023/03/01 03:03:09;;;;;;;0.30;0.20;;;;;;;9.06;100.00;95634.72;5112645;28;20493;-58
2023/03/01 03:05:37;;;;;;;0.30;0.20;;;;;;;8.99;100.00;95650.00;5112505;28;20476;-58
2023/03/01 03:08:07;;;;;;;0.87;0.87;;;;;;;7.90;100.00;95466.38;5112605;28;20965;-58
2023/03/01 03:10:39;;;;;;;0.40;0.20;;;;;;;9.14;100.00;95636.09;5112822;28;20575;-58
2023/03/01 03:13:09;;;;;;;0.40;0.30;;;;;;;9.46;100.00;95645.63;5112558;28;20427;-58
2023/03/01 03:15:40;;;;;;;0.30;0.20;;;;;;;9.90;100.00;95640.88;5111912;28;20513;-58
2023/03/01 03:18:10;;;;;;;0.30;0.20;;;;;;;9.77;100.00;95633.38;5112444;28;20437;-58
2023/03/01 03:20:41;;;;;;;0.30;0.23;;;;;;;9.76;100.00;95629.16;5111140;28;21091;-58
2023/03/01 03:23:09;;;;;;;0.80;0.60;;;;;;;9.34;100.00;95615.09;5112374;28;20420;-58
2023/03/01 03:25:38;;;;;;;0.47;0.47;;;;;;;9.53;100.00;95616.31;5112454;28;20540;-58
2023/03/01 03:28:10;;;;;;;0.30;0.20;;;;;;;9.84;100.00;95619.94;5112194;28;20584;-58
2023/03/01 03:33:27;;;;;;;0.30;0.20;;;;;;;9.97;100.00;95614.97;5112193;28;20526;-58
2023/03/01 03:35:55;;;;;;;0.40;0.30;;;;;;;9.43;100.00;95624.19;5112405;28;20773;-58
2023/03/01 03:38:24;;;;;;;0.30;0.20;;;;;;;9.78;100.00;95618.31;5112182;28;20505;-58
2023/03/01 03:41:00;;;;;;;0.30;0.20;;;;;;;9.61;100.00;95629.06;5112097;28;20524;-58
2023/03/01 03:43:30;;;;;;;0.30;0.20;;;;;;;9.23;100.00;95539.41;5112125;28;20492;-59
2023/03/01 03:46:18;;;;;;;0.50;0.50;;;;;;;9.37;100.00;95604.03;5111676;28;20558;-59
2023/03/01 03:48:47;;;;;;;0.30;0.20;;;;;;;9.11;100.00;95581.09;5111953;28;20467;-59
2023/03/01 03:51:17;;;;;;;0.30;0.20;;;;;;;9.93;100.00;95637.72;5112314;28;20857;-59
2023/03/01 03:53:46;;;;;;;0.30;0.20;;;;;;;10.33;100.00;95641.63;5111230;28;20857;-59
2023/03/01 03:56:14;;;;;;;0.30;0.20;;;;;;;8.73;100.00;95442.84;5111416;28;21010;-59
2023/03/01 03:59:01;;;;;;;3.13;0.70;;;;;;;9.65;100.00;95632.78;5111675;28;20432;-58
2023/03/01 04:01:49;;;;;;;1.23;0.37;;;;;;;9.55;100.00;95638.00;5111528;28;20449;-59
2023/03/01 04:04:18;;;;;;;0.50;0.40;;;;;;;9.68;100.00;95637.56;5115240;28;20503;-60
2023/03/01 04:06:48;;;;;;;0.40;0.30;;;;;;;9.84;100.00;95630.53;5115855;28;20514;-60
2023/03/01 04:09:16;;;;;;;0.30;0.20;;;;;;;10.16;100.00;95642.63;5115850;28;20457;-58
2023/03/01 04:11:44;;;;;;;0.40;0.23;;;;;;;10.32;100.00;95642.69;5115089;28;20425;-58
2023/03/01 04:14:13;;;;;;;0.40;0.30;;;;;;;9.89;100.00;95627.91;5116053;28;20477;-58
2023/03/01 04:16:41;;;;;;;0.30;0.20;;;;;;;10.05;100.00;95634.84;5115999;28;20429;-58
2023/03/01 04:19:11;;;;;;;0.30;0.20;;;;;;;9.62;100.00;95641.22;5116133;28;20434;-58
2023/03/01 04:21:39;;;;;;;0.30;0.30;;;;;;;9.79;100.00;95631.28;5115714;28;20486;-58
2023/03/01 04:24:09;;;;;;;0.47;0.37;;;;;;;9.40;100.00;95633.41;5115793;28;20465;-58
2023/03/01 04:26:37;;;;;;;0.80;0.57;;;;;;;9.56;100.00;95642.28;5115729;28;20462;-58
2023/03/01 04:29:05;;;;;;;2.00;1.17;;;;;;;9.52;100.00;95635.88;5115687;28;20527;-58
2023/03/01 04:31:34;;;;;;;4.00;1.00;;;;;;;9.66;100.00;95639.69;5115814;28;20794;-58
2023/03/01 04:34:02;;;;;;;0.30;0.30;;;;;;;9.47;100.00;95631.34;5115192;28;20508;-58
2023/03/01 04:36:32;;;;;;;0.40;0.33;;;;;;;9.43;100.00;95634.75;5115113;28;20534;-58
2023/03/01 04:39:11;;;;;;;0.57;0.30;;;;;;;9.48;100.00;95625.03;5115837;28;20434;-58
2023/03/01 04:41:41;;;;;;;0.40;0.30;;;;;;;9.40;100.00;95632.63;5115806;28;20429;-58
2023/03/01 04:44:09;;;;;;;0.60;0.40;;;;;;;9.74;100.00;95636.53;5115667;28;20776;-58
2023/03/01 04:46:37;;;;;;;0.33;0.30;;;;;;;9.81;100.00;95633.69;5115258;28;20509;-58
2023/03/01 04:49:06;;;;;;;0.33;0.30;;;;;;;9.64;100.00;95641.78;5115262;28;20438;-58
2023/03/01 04:51:35;;;;;;;0.50;0.50;;;;;;;10.11;100.00;95637.28;5115090;28;20939;-58
2023/03/01 04:54:08;;;;;;;0.67;0.33;;;;;;;10.17;100.00;95619.56;5115214;28;20427;-58
2023/03/01 04:56:36;;;;;;;0.77;0.77;;;;;;;10.01;100.00;95642.53;5115113;28;20842;-58
2023/03/01 04:59:05;;;;;;;1.97;0.47;;;;;;;10.01;100.00;95594.88;5115149;28;20455;-58
2023/03/01 05:01:35;;;;;;;0.30;0.30;;;;;;;10.05;100.00;95640.16;5115259;28;20465;-58
2023/03/01 05:04:05;;;;;;;0.40;0.30;;;;;;;10.00;100.00;95645.41;5115277;28;20502;-58
2023/03/01 05:06:34;;;;;;;0.40;0.40;;;;;;;9.76;100.00;95641.59;5114815;28;20555;-58
2023/03/01 05:09:03;;;;;;;0.30;0.20;;;;;;;9.46;100.00;95636.91;5114909;28;20510;-58
2023/03/01 05:11:35;;;;;;;0.47;0.40;;;;;;;9.70;100.00;95642.59;5114694;28;20427;-58
2023/03/01 05:14:04;;;;;;;0.40;0.30;;;;;;;9.50;100.00;95644.06;5114817;28;20434;-58
2023/03/01 05:16:33;;;;;;;0.30;0.30;;;;;;;9.71;100.00;95605.31;5114676;28;20435;-57
2023/03/01 05:19:11;;;;;;;0.77;0.60;;;;;;;9.80;100.00;95638.16;5114745;28;20415;-57
2023/03/01 05:22:01;;;;;;;0.40;0.30;;;;;;;9.87;100.00;95644.03;5114109;28;20904;-57
2023/03/01 05:24:31;;;;;;;0.40;0.40;;;;;;;9.99;100.00;95628.72;5114448;28;20459;-57
2023/03/01 05:27:00;;;;;;;2.23;0.83;;;;;;;10.01;100.00;95644.38;5114359;28;20485;-57
2023/03/01 05:29:30;;;;;;;0.50;0.50;;;;;;;9.59;100.00;95615.28;5114300;28;20439;-57
2023/03/01 05:32:00;;;;;;;0.40;0.37;;;;;;;9.92;100.00;95652.00;5093936;28;20451;-56
2023/03/01 05:34:31;;;;;;;0.30;0.20;;;;;;;9.65;100.00;95646.03;5093932;28;20475;-57
2023/03/01 05:37:04;;;;;;;0.30;0.20;;;;;;;9.62;100.00;95654.47;5093944;28;20418;-57
2023/03/01 05:39:33;;;;;;;0.87;0.87;;;;;;;9.58;100.00;95653.38;5093763;28;20515;-56
2023/03/01 05:42:02;;;;;;;0.40;0.40;;;;;;;9.52;100.00;95649.09;5093728;28;20509;-56
2023/03/01 05:44:31;;;;;;;0.30;0.20;;;;;;;10.08;100.00;95650.22;5093653;28;20436;-56
2023/03/01 05:46:59;;;;;;;0.40;0.30;;;;;;;10.02;100.00;95651.25;5093549;28;20479;-55
2023/03/01 05:49:27;;;;;;;0.40;0.30;;;;;;;10.07;100.00;95657.38;5093412;28;20424;-56
2023/03/01 05:51:56;;;;;;;0.40;0.30;;;;;;;10.42;100.00;95656.00;5093332;28;20425;-56
2023/03/01 05:54:26;;;;;;;0.50;0.33;;;;;;;9.99;100.00;95618.13;5093470;28;20893;-55
2023/03/01 05:56:54;;;;;;;0.40;0.30;;;;;;;10.04;99.85;95657.88;5093422;28;20426;-56
2023/03/01 05:59:22;;;;;;;0.70;0.40;;;;;;;10.29;100.00;95667.06;5093716;28;20443;-56
2023/03/01 06:01:51;;;;;;;0.60;0.50;;;;;;;10.67;100.00;95656.88;5093637;28;20442;-56
2023/03/01 06:04:19;;;;;;;0.40;0.40;;;;;;;10.64;100.00;95659.25;5093262;28;20543;-55
2023/03/01 06:06:47;;;;;;;0.97;0.77;;;;;;;10.55;100.00;95666.13;5093607;28;21012;-56
2023/03/01 06:09:16;;;;;;;1.13;1.13;;;;;;;10.80;100.00;95666.19;5093290;28;20447;-56
2023/03/01 06:11:45;;;;;;;0.70;0.70;;;;;;;10.95;100.00;95665.41;5092616;28;20464;-56
2023/03/01 06:14:14;;;;;;;1.97;1.10;;;;;;;11.12;100.00;95673.91;5092957;28;20428;-56
2023/03/01 06:16:42;;;;;;;0.50;0.40;;;;;;;11.20;98.22;95668.91;5093092;28;20439;-56
2023/03/01 06:19:10;;;;;;;0.60;0.60;;;;;;;11.14;100.00;95675.25;5093247;28;20512;-55
2023/03/01 06:21:39;;;;;;;0.50;0.30;;;;;;;10.57;99.98;95659.50;5092725;28;20476;-56
2023/03/01 06:24:08;;;;;;;1.03;1.03;;;;;;;10.68;100.00;95669.06;5093138;28;20606;-55
2023/03/01 06:26:36;;;;;;;0.90;0.90;;;;;;;11.10;99.94;95676.06;5092324;28;20570;-56
2023/03/01 06:29:06;;;;;;;0.80;0.80;;;;;;;11.19;100.00;95674.47;5092785;28;20916;-55
2023/03/01 06:31:34;;;;;;;0.80;0.80;;;;;;;11.14;100.00;95671.78;5092727;28;20431;-55
2023/03/01 06:34:02;;;;;;;0.70;0.70;;;;;;;11.04;100.00;95677.88;5093163;28;20427;-56
2023/03/01 06:36:31;;;;;;;0.40;0.30;;;;;;;11.23;97.25;95681.63;5092670;28;20435;-56
2023/03/01 06:38:59;;;;;;;0.50;0.50;;;;;;;11.44;97.01;95677.94;5093146;28;20436;-56
2023/03/01 06:41:28;;;;;;;0.40;0.40;;;;;;;11.06;95.07;95625.38;5092632;28;20925;-56
2023/03/01 06:43:56;;;;;;;0.57;0.57;;;;;;;11.27;94.29;95664.13;5092556;28;20427;-56
2023/03/01 06:46:27;;;;;;;2.40;1.10;;;;;;;11.35;94.11;95673.41;5092993;28;20543;-56
2023/03/01 06:48:56;;;;;;;0.83;0.40;;;;;;;11.52;93.79;95659.88;5092415;28;20440;-56
2023/03/01 06:51:25;;;;;;;0.50;0.50;;;;;;;11.40;100.00;95684.03;5092846;28;20417;-56
2023/03/01 06:53:54;;;;;;;0.87;0.57;;;;;;;11.34;100.00;95685.88;5092311;28;20431;-54
2023/03/01 06:56:22;;;;;;;2.00;0.53;;;;;;;11.51;100.00;95687.50;5092325;28;20782;-55
2023/03/01 06:58:50;;;;;;;0.87;0.80;;;;;;;11.23;100.00;95686.16;5092129;28;20436;-55
2023/03/01 07:01:19;;;;;;;0.50;0.50;;;;;;;11.55;100.00;95683.22;5092355;28;20424;-55
2023/03/01 07:03:48;;;;;;;0.40;0.40;;;;;;;11.68;100.00;95682.69;5092228;28;20441;-55
2023/03/01 07:06:17;;;;;;;1.33;0.73;;;;;;;11.67;100.00;95679.25;5091383;28;20504;-56
2023/03/01 07:08:45;;;;;;;0.30;0.30;;;;;;;11.75;100.00;95680.59;5092405;28;20486;-56
2023/03/01 07:11:14;;;;;;;0.40;0.30;;;;;;;11.67;100.00;95681.09;5092084;28;20520;-55
2023/03/01 07:13:42;;;;;;;0.87;0.87;;;;;;;11.31;100.00;95686.41;5092060;28;20433;-56
2023/03/01 07:16:10;;;;;;;0.83;0.77;;;;;;;11.15;100.00;95684.81;5091123;28;20429;-55
2023/03/01 07:18:39;;;;;;;0.70;0.70;;;;;;;11.42;100.00;95688.00;5091931;28;20437;-55
2023/03/01 07:21:10;;;;;;;0.30;0.20;;;;;;;10.83;100.00;95608.09;5091757;28;20464;-56
2023/03/01 07:23:38;;;;;;;0.37;0.30;;;;;;;11.74;100.00;95687.75;5092043;28;20444;-56
2023/03/01 07:26:07;;;;;;;0.70;0.70;;;;;;;11.58;100.00;95688.03;5092090;28;20435;-56
2023/03/01 07:28:38;;;;;;;0.40;0.30;;;;;;;11.66;100.00;95682.97;5092127;28;20449;-56
2023/03/01 07:31:07;;;;;;;0.40;0.40;;;;;;;11.61;100.00;95690.94;5091472;28;20456;-55
2023/03/01 07:33:35;;;;;;;0.50;0.40;;;;;;;11.40;97.20;95689.34;5092080;28;20754;-55
2023/03/01 07:36:05;;;;;;;0.43;0.40;;;;;;;11.35;92.21;95658.28;5091442;28;20504;-55
2023/03/01 07:38:35;;;;;;;0.87;0.87;;;;;;;11.71;92.92;95680.34;5091047;28;20420;-55
2023/03/01 07:41:05;;;;;;;1.90;1.00;;;;;;;11.44;89.91;95680.59;5091541;28;20431;-56
2023/03/01 07:43:34;;;;;;;0.53;0.53;;;;;;;11.25;92.12;95681.38;5091459;28;20457;-56
2023/03/01 07:46:03;;;;;;;0.40;0.40;;;;;;;11.24;90.65;95683.22;5091605;28;20505;-56
2023/03/01 07:48:32;;;;;;;0.47;0.47;;;;;;;11.50;90.09;95678.72;5091405;28;20476;-56
2023/03/01 07:51:01;;;;;;;0.30;0.30;;;;;;;11.19;90.24;95691.19;5091535;28;20444;-56
2023/03/01 07:53:31;;;;;;;0.40;0.33;;;;;;;11.80;88.02;95680.59;5091389;28;20472;-56
2023/03/01 07:56:07;;;;;;;0.60;0.57;;;;;;;11.64;87.73;95671.81;5091814;28;20454;-56
2023/03/01 07:58:36;;;;;;;0.40;0.40;;;;;;;11.40;88.61;95623.00;5091353;28;20431;-57
2023/03/01 08:01:05;;;;;;;0.40;0.40;;;;;;;11.67;89.83;95675.78;5091799;28;20895;-57
2023/03/01 08:03:34;;;;;;;0.30;0.30;;;;;;;11.62;89.49;95676.59;5091555;28;20437;-56
2023/03/01 08:06:03;;;;;;;0.40;0.40;;;;;;;11.94;87.05;95634.63;5091146;28;20501;-55
2023/03/01 08:08:32;;;;;;;1.13;0.33;;;;;;;12.47;86.65;95675.63;5091230;28;20476;-56
2023/03/01 08:11:02;;;;;;;0.63;0.50;;;;;;;12.33;83.22;95671.97;5091396;28;20456;-56
2023/03/01 08:13:32;;;;;;;0.30;0.20;;;;;;;12.33;87.16;95676.50;5091345;28;20460;-56
2023/03/01 08:16:03;;;;;;;0.70;0.70;;;;;;;12.23;84.87;95672.00;5091125;28;20433;-55
2023/03/01 08:18:31;;;;;;;0.37;0.27;;;;;;;12.32;84.72;95658.97;5091159;28;20435;-55
2023/03/01 08:21:03;;;;;;;0.40;0.40;;;;;;;12.25;85.27;95658.44;5091038;28;20480;-55
2023/03/01 08:23:31;;;;;;;0.40;0.30;;;;;;;11.77;85.86;95663.34;5090955;28;20495;-56
2023/03/01 08:26:08;;;;;;;0.60;0.30;;;;;;;11.57;84.65;95657.22;5091519;28;20420;-55
2023/03/01 08:28:38;;;;;;;0.40;0.30;;;;;;;11.72;84.06;95657.22;5091017;28;20483;-55
2023/03/01 08:31:15;;;;;;;0.30;0.30;;;;;;;12.18;83.37;95661.38;5091115;28;20515;-55
2023/03/01 08:33:50;;;;;;;0.40;0.40;;;;;;;11.62;84.55;95654.56;5091072;28;20519;-55
2023/03/01 08:36:20;;;;;;;0.60;0.50;;;;;;;12.13;85.01;95660.59;5091307;28;20410;-55
2023/03/01 08:38:49;;;;;;;4.20;1.93;;;;;;;12.18;83.66;95665.91;5090993;28;20472;-56
2023/03/01 08:41:17;;;;;;;0.40;0.30;;;;;;;12.31;83.81;95660.03;5091021;28;20443;-56
2023/03/01 08:43:47;;;;;;;0.80;0.80;;;;;;;11.88;85.10;95664.13;5090889;28;20437;-55
2023/03/01 08:46:15;;;;;;;0.87;0.87;;;;;;;12.22;83.54;95661.66;5089939;28;20425;-56
2023/03/01 08:48:44;;;;;;;1.83;0.70;;;;;;;12.10;83.69;95654.78;5091254;28;20504;-56
2023/03/01 08:51:15;;;;;;;0.50;0.50;;;;;;;12.28;83.58;95656.03;5094147;28;20519;-56
2023/03/01 08:53:43;;;;;;;0.40;0.30;;;;;;;12.26;83.92;95649.41;5094620;28;20497;-55
2023/03/01 08:56:12;;;;;;;0.30;0.30;;;;;;;12.51;84.10;95644.78;5094621;28;20493;-55
2023/03/01 08:58:41;;;;;;;0.40;0.40;;;;;;;12.30;84.09;95643.28;5094429;28;20412;-56
2023/03/01 09:01:11;;;;;;;0.30;0.20;;;;;;;12.59;83.63;95644.22;5094232;28;20475;-55
2023/03/01 09:03:40;;;;;;;0.30;0.20;;;;;;;12.75;81.98;95645.72;5094248;28;20928;-55
2023/03/01 09:06:08;;;;;;;0.30;0.30;;;;;;;12.23;85.27;95644.63;5094178;28;20436;-55
2023/03/01 09:08:38;;;;;;;0.40;0.33;;;;;;;12.28;84.38;95642.75;5094314;28;20465;-55
2023/03/01 09:11:07;;;;;;;0.30;0.30;;;;;;;12.65;82.98;95643.13;5093668;28;20457;-56
2023/03/01 09:13:36;;;;;;;0.93;0.93;;;;;;;12.19;84.12;95583.28;5094143;28;21003;-55
2023/03/01 09:16:06;;;;;;;0.37;0.30;;;;;;;12.58;83.56;95644.47;5093701;28;20465;-56
2023/03/01 09:18:36;;;;;;;14.83;1.40;;;;;;;12.37;84.11;95635.03;5093367;28;20435;-55
2023/03/01 09:21:07;;;;;;;1.07;1.03;;;;;;;12.62;83.98;95635.69;5092964;28;20500;-56
2023/03/01 09:23:38;;;;;;;0.83;0.60;;;;;;;12.65;83.01;95626.34;5093593;28;20437;-55
2023/03/01 09:26:08;;;;;;;0.80;0.80;;;;;;;12.84;81.93;95637.16;5094081;28;20862;-55
2023/03/01 09:28:38;;;;;;;4.20;0.60;;;;;;;13.11;82.46;95634.88;5093512;28;20460;-55
2023/03/01 09:31:06;;;;;;;0.63;0.50;;;;;;;12.61;81.13;95558.84;5092887;28;21038;-56
2023/03/01 09:33:36;;;;;;;0.40;0.37;;;;;;;13.13;80.83;95641.53;5093817;28;20432;-56
2023/03/01 09:36:07;;;;;;;0.70;0.70;;;;;;;13.15;80.62;95639.41;5093210;28;20439;-56
2023/03/01 09:38:35;;;;;;;0.63;0.63;;;;;;;12.85;81.20;95644.88;5093436;28;20437;-56
2023/03/01 09:41:11;;;;;;;0.50;0.40;;;;;;;13.19;81.51;95623.66;5093087;28;20428;-57
2023/03/01 09:43:46;;;;;;;0.60;0.30;;;;;;;13.17;80.80;95612.50;5093603;28;20428;-56
2023/03/01 09:46:16;;;;;;;1.03;1.03;;;;;;;12.86;79.71;95629.72;5093344;28;20498;-56
2023/03/01 09:48:51;;;;;;;0.40;0.30;;;;;;;12.80;80.58;95606.88;5093168;28;20468;-56
2023/03/01 09:51:26;;;;;;;2.00;1.90;;;;;;;12.10;79.68;95502.53;5093332;28;20436;-56
2023/03/01 09:53:56;;;;;;;1.37;1.37;;;;;;;12.23;79.75;95584.31;5107033;28;20848;-56
2023/03/01 09:56:33;;;;;;;0.63;0.63;;;;;;;12.79;81.11;95624.69;5114035;28;20423;-56
2023/03/01 09:59:16;;;;;;;0.50;0.40;;;;;;;12.88;80.94;95623.03;5114060;28;20438;-55
2023/03/01 10:01:53;;;;;;;0.53;0.47;;;;;;;13.17;81.03;95625.81;5112924;28;20438;-56
2023/03/01 10:04:42;;;;;;;0.90;0.50;;;;;;;12.86;80.70;95621.72;5114075;28;20420;-55
2023/03/01 10:07:31;;;;;;;0.40;0.33;;;;;;;13.09;81.71;95624.53;5114314;28;20446;-55
2023/03/01 10:10:00;;;;;;;1.20;1.20;;;;;;;11.81;79.75;95454.63;5113333;28;20562;-55
2023/03/01 10:12:35;;;;;;;0.47;0.30;;;;;;;13.41;79.51;95604.59;5113817;28;20424;-54
2023/03/01 10:15:10;;;;;;;0.60;0.60;;;;;;;13.38;76.94;95613.94;5114164;28;20502;-55
2023/03/01 10:17:43;;;;;;;1.03;0.70;;;;;;;13.48;77.01;95603.22;5113978;28;20515;-55
2023/03/01 10:20:25;;;;;;;0.40;0.30;;;;;;;13.77;77.53;95611.16;5113789;28;20476;-55
2023/03/01 10:22:55;;;;;;;3.00;2.17;;;;;;;13.96;79.51;95596.84;5113263;28;20489;-55
2023/03/01 10:25:45;;;;;;;0.60;0.60;;;;;;;13.89;78.96;95604.38;5112298;28;20477;-55
2023/03/01 10:28:18;;;;;;;1.37;0.80;;;;;;;13.67;80.69;95598.75;5113389;28;20830;-54
2023/03/01 10:30:47;;;;;;;1.90;1.80;;;;;;;13.65;80.79;95595.59;5112916;28;20428;-54
2023/03/01 10:33:21;;;;;;;2.30;0.80;;;;;;;13.44;81.61;95594.16;5113363;28;20989;-54
2023/03/01 10:35:51;;;;;;;0.53;0.53;;;;;;;13.34;82.96;95588.94;5113200;28;20432;-54
2023/03/01 10:38:21;;;;;;;0.53;0.53;;;;;;;13.30;83.63;95590.56;5113271;28;21009;-55
2023/03/01 10:40:56;;;;;;;0.40;0.30;;;;;;;13.19;84.50;95586.41;5112977;28;20519;-56
2023/03/01 10:43:26;;;;;;;0.40;0.30;;;;;;;13.17;83.21;95530.00;5113004;28;20839;-54
2023/03/01 10:45:55;;;;;;;0.63;0.63;;;;;;;13.42;83.70;95585.69;5113073;28;20506;-54
2023/03/01 10:48:26;;;;;;;0.40;0.40;;;;;;;13.21;83.13;95578.94;5112665;28;20975;-54
2023/03/01 10:51:08;;;;;;;0.40;0.30;;;;;;;13.16;82.48;95581.63;5112725;28;20432;-55
2023/03/01 10:53:39;;;;;;;0.40;0.30;;;;;;;13.43;82.49;95555.31;5112789;28;20431;-55
2023/03/01 10:56:10;;;;;;;0.40;0.30;;;;;;;13.44;80.54;95559.56;5112257;28;20439;-55
2023/03/01 10:58:40;;;;;;;1.33;0.67;;;;;;;13.44;80.81;95559.56;5112618;28;20843;-55
2023/03/01 11:01:27;;;;;;;0.37;0.30;;;;;;;13.31;81.28;95566.31;5112754;28;20515;-55
2023/03/01 11:04:13;;;;;;;1.03;1.03;;;;;;;13.44;81.69;95559.56;5112586;28;20427;-55
2023/03/01 11:06:44;;;;;;;0.40;0.33;;;;;;;13.44;82.09;95554.22;5112382;28;20473;-55
2023/03/01 11:09:17;;;;;;;0.50;0.40;;;;;;;13.50;82.04;95539.81;5112308;28;20460;-55
2023/03/01 11:11:45;;;;;;;0.30;0.30;;;;;;;13.47;81.47;95548.34;5112215;28;20807;-54
2023/03/01 11:14:18;;;;;;;0.50;0.40;;;;;;;13.83;79.46;95544.25;5112339;28;21060;-55
2023/03/01 11:17:01;;;;;;;0.60;0.60;;;;;;;13.57;78.83;95539.47;5112190;28;20431;-54
2023/03/01 11:19:30;;;;;;;1.07;1.07;;;;;;;13.62;79.40;95542.06;5112173;28;20859;-56
2023/03/01 11:22:04;;;;;;;1.77;1.13;;;;;;;13.51;78.90;95536.06;5111951;28;20578;-55
2023/03/01 11:24:39;;;;;;;1.33;1.23;;;;;;;13.19;80.87;95544.63;5112313;28;20420;-55
2023/03/01 11:27:18;;;;;;;0.40;0.30;;;;;;;13.33;81.58;95542.88;5112372;28;20435;-55
2023/03/01 11:29:50;;;;;;;0.40;0.30;;;;;;;13.49;81.78;95513.44;5111159;28;20490;-56
2023/03/01 11:32:21;;;;;;;0.40;0.30;;;;;;;12.82;83.15;95523.09;5111438;28;20428;-55
2023/03/01 11:34:55;;;;;;;0.90;0.90;;;;;;;13.05;82.31;95533.00;5112067;28;20431;-55
2023/03/01 11:37:34;;;;;;;0.80;0.80;;;;;;;13.37;81.51;95532.47;5111868;28;20507;-55
2023/03/01 11:40:24;;;;;;;0.50;0.30;;;;;;;12.94;83.40;95528.84;5111783;28;20431;-55
2023/03/01 11:43:07;;;;;;;0.30;0.20;;;;;;;13.18;82.71;95526.28;5111667;28;20913;-55
2023/03/01 11:45:48;;;;;;;0.33;0.27;;;;;;;13.42;81.44;95516.44;5112042;28;20835;-55
2023/03/01 11:48:33;;;;;;;0.30;0.30;;;;;;;13.41;81.97;95514.84;5111337;28;20485;-55
2023/03/01 11:51:25;;;;;;;0.30;0.20;;;;;;;13.63;79.89;95507.19;5111518;28;20467;-55
2023/03/01 11:54:10;;;;;;;0.63;0.60;;;;;;;13.42;79.51;95511.13;5110592;28;20442;-55